Time,TemperatureF,DewpointF,PressureIn,WindDirection,WindDirectionDegrees,WindSpeedMPH,WindSpeedGustMPH,Humidity,HourlyPrecipIn,Conditions,Clouds,dailyrainin,SoftwareType,DateUTC
2013-01-12 00:00:00,29.2,19.6,30.18,ENE,68,0.0,1.0,67,0.00,,,0.00,LWC V2.11 B50,2013-01-12 08:00:00,
2013-01-12 00:05:00,49.1,44.1,29.80,ESE,118,0.0,0.6,84,0.00,,,0.00,WeatherCatV1.15B25,2013-01-12 08:05:00,
2013-01-12 00:10:00,29.2,19.6,30.18,ENE,68,0.0,1.0,67,0.00,,,0.00,LWC V2.11 B50,2013-01-12 08:10:00,
2013-01-12 00:15:00,49.1,44.1,29.80,ESE,118,0.0,0.6,84,0.00,,,0.00,WeatherCatV1.15B25,2013-01-12 08:15:00,
2013-01-12 00:20:00,29.2,19.6,30.18,ENE,68,0.0,1.0,67,0.00,,,0.00,LWC V2.11 B50,2013-01-12 08:20:00,
2013-01-12 00:25:00,49.1,44.1,29.80,ESE,118,0.0,0.6,84,0.00,,,0.00,WeatherCatV1.15B25,2013-01-12 08:25:00,
2013-01-12 00:30:00,29.2,19.6,30.18,ENE,68,0.0,1.0,67,0.00,,,0.00,LWC V2.11 B50,2013-01-12 08:30:00,
2013-01-12 00:35:00,49.1,44.1,29.80,ESE,118,0.0,0.6,84,0.00,,,0.00,WeatherCatV1.15B25,2013-01-12 08:35:00,
2013-01-12 00:40:00,29.2,19.6,30.18,ENE,68,0.0,1.0,67,0.00,,,0.00,LWC V2.11 B50,2013-01-12 08:40:00,
2013-01-12 00:45:00,49.1,44.1,29.80,ESE,118,0.0,0.6,84,0.00,,,0.00,WeatherCatV1.15B25,2013-01-12 08:45:00,
2013-01-12 00:50:00,29.2,19.6,30.18,ENE,68,0.0,1.0,67,0.00,,,0.00,LWC V2.11 B50,2013-01-12 08:50:00,
2013-01-12 00:55:00,49.1,44.1,29.80,ESE,118,0.0,0.6,84,0.00,,,0.00,WeatherCatV1.15B25,2013-01-12 08:55:00,
2013-01-12 01:00:00,29.2,19.6,30.18,ENE,68,0.0,1.0,67,0.00,,,0.00,LWC V2.11 B50,2013-01-12 09:00:00,
2013-01-12 01:05:00,49.1,44.1,29.80,ESE,118,0.0,0.6,84,0.00,,,0.00,WeatherCatV1.15B25,2013-01-12 09:05:00,
2013-01-12 01:10:00,25.9,21.2,30.18,ENE,68,0.0,0.0,82,0.00,,,0.00,LWC V2.11 B50,2013-01-12 09:10:00,
2013-01-12 01:15:00,49.1,44.1,29.80,ESE,118,0.0,0.6,84,0.00,,,0.00,WeatherCatV1.15B25,2013-01-12 09:15:00,
2013-01-12 01:20:00,25.9,21.2,30.18,ENE,68,0.0,0.0,82,0.00,,,0.00,LWC V2.11 B50,2013-01-12 09:20:00,
2013-01-12 01:25:00,49.1,44.1,29.80,ESE,118,0.0,0.6,84,0.00,,,0.00,WeatherCatV1.15B25,2013-01-12 09:25:00,
2013-01-12 01:30:00,25.9,21.2,30.18,ENE,68,0.0,0.0,82,0.00,,,0.00,LWC V2.11 B50,2013-01-12 09:30:00,
2013-01-12 01:35:00,49.1,44.1,29.80,ESE,118,0.0,0.6,84,0.00,,,0.00,WeatherCatV1.15B25,2013-01-12 09:35:00,
2013-01-12 01:40:00,25.9,21.2,30.18,ENE,68,0.0,0.0,82,0.00,,,0.00,LWC V2.11 B50,2013-01-12 09:40:00,
2013-01-12 01:45:00,49.1,44.1,29.80,ESE,118,0.0,0.6,84,0.00,,,0.00,WeatherCatV1.15B25,2013-01-12 09:45:00,
2013-01-12 01:50:00,25.9,21.2,30.18,ENE,68,0.0,0.0,82,0.00,,,0.00,LWC V2.11 B50,2013-01-12 09:50:00,
2013-01-12 01:55:00,49.1,44.1,29.80,ESE,118,0.0,0.6,84,0.00,,,0.00,WeatherCatV1.15B25,2013-01-12 09:55:00,
2013-01-12 02:00:00,25.9,21.2,30.18,ENE,68,0.0,0.0,82,0.00,,,0.00,LWC V2.11 B50,2013-01-12 10:00:00,
2013-01-12 02:05:00,49.1,44.1,29.80,ESE,118,0.0,0.6,84,0.00,,,0.00,WeatherCatV1.15B25,2013-01-12 10:05:00,
2013-01-12 02:10:00,26.9,19.4,30.18,ENE,68,0.0,0.0,73,0.00,,,0.00,LWC V2.11 B50,2013-01-12 10:10:00,
2013-01-12 02:15:00,49.1,44.1,29.80,ESE,118,0.0,0.6,84,0.00,,,0.00,WeatherCatV1.15B25,2013-01-12 10:15:00,
2013-01-12 02:20:00,26.9,19.4,30.18,ENE,68,0.0,0.0,73,0.00,,,0.00,LWC V2.11 B50,2013-01-12 10:20:00,
2013-01-12 02:25:00,49.1,44.1,29.80,ESE,118,0.0,0.6,84,0.00,,,0.00,WeatherCatV1.15B25,2013-01-12 10:25:00,
2013-01-12 02:30:00,26.9,19.4,30.18,ENE,68,0.0,0.0,73,0.00,,,0.00,LWC V2.11 B50,2013-01-12 10:30:00,
2013-01-12 02:35:00,49.1,44.1,29.80,ESE,118,0.0,0.6,84,0.00,,,0.00,WeatherCatV1.15B25,2013-01-12 10:35:00,
2013-01-12 02:40:00,26.9,19.4,30.18,ENE,68,0.0,0.0,73,0.00,,,0.00,LWC V2.11 B50,2013-01-12 10:40:00,
2013-01-12 02:45:00,49.1,44.1,29.80,ESE,118,0.0,0.6,84,0.00,,,0.00,WeatherCatV1.15B25,2013-01-12 10:45:00,
2013-01-12 02:50:00,26.9,19.4,30.18,ENE,68,0.0,0.0,73,0.00,,,0.00,LWC V2.11 B50,2013-01-12 10:50:00,
2013-01-12 02:55:00,49.1,44.1,29.80,ESE,118,0.0,0.6,84,0.00,,,0.00,WeatherCatV1.15B25,2013-01-12 10:55:00,
2013-01-12 03:00:00,26.9,19.4,30.18,ENE,68,0.0,0.0,73,0.00,,,0.00,LWC V2.11 B50,2013-01-12 11:00:00,
2013-01-12 03:05:00,49.1,44.1,29.80,ESE,118,0.0,0.6,84,0.00,,,0.00,WeatherCatV1.15B25,2013-01-12 11:05:00,
2013-01-12 03:10:00,27.5,19.0,30.19,ENE,68,0.0,0.0,70,0.00,,,0.00,LWC V2.11 B50,2013-01-12 11:10:00,
2013-01-12 03:15:00,49.1,44.1,29.80,ESE,118,0.0,0.6,84,0.00,,,0.00,WeatherCatV1.15B25,2013-01-12 11:15:00,
2013-01-12 03:20:00,27.5,19.0,30.19,ENE,68,0.0,0.0,70,0.00,,,0.00,LWC V2.11 B50,2013-01-12 11:20:00,
2013-01-12 03:25:00,49.1,44.1,29.80,ESE,118,0.0,0.6,84,0.00,,,0.00,WeatherCatV1.15B25,2013-01-12 11:25:00,
2013-01-12 03:30:00,27.5,19.0,30.19,ENE,68,0.0,0.0,70,0.00,,,0.00,LWC V2.11 B50,2013-01-12 11:30:00,
2013-01-12 03:35:00,49.1,44.1,29.80,ESE,118,0.0,0.6,84,0.00,,,0.00,WeatherCatV1.15B25,2013-01-12 11:35:00,
2013-01-12 03:40:00,27.5,19.0,30.19,ENE,68,0.0,0.0,70,0.00,,,0.00,LWC V2.11 B50,2013-01-12 11:40:00,
2013-01-12 03:45:00,49.1,44.1,29.80,ESE,118,0.0,0.6,84,0.00,,,0.00,WeatherCatV1.15B25,2013-01-12 11:45:00,
2013-01-12 03:50:00,27.5,19.0,30.19,ENE,68,0.0,0.0,70,0.00,,,0.00,LWC V2.11 B50,2013-01-12 11:50:00,
2013-01-12 03:55:00,49.1,44.1,29.80,ESE,118,0.0,0.6,84,0.00,,,0.00,WeatherCatV1.15B25,2013-01-12 11:55:00,
2013-01-12 04:00:00,27.5,19.0,30.19,ENE,68,0.0,0.0,70,0.00,,,0.00,LWC V2.11 B50,2013-01-12 12:00:00,
2013-01-12 04:05:00,49.1,44.1,29.80,ESE,118,0.0,0.6,84,0.00,,,0.00,WeatherCatV1.15B25,2013-01-12 12:05:00,
2013-01-12 04:10:00,24.9,21.0,30.19,ENE,68,0.0,0.0,85,0.00,,,0.00,LWC V2.11 B50,2013-01-12 12:10:00,
2013-01-12 04:15:00,49.1,44.1,29.80,ESE,118,0.0,0.6,84,0.00,,,0.00,WeatherCatV1.15B25,2013-01-12 12:15:00,
2013-01-12 04:20:00,24.9,21.0,30.19,ENE,68,0.0,0.0,85,0.00,,,0.00,LWC V2.11 B50,2013-01-12 12:20:00,
2013-01-12 04:25:00,49.1,44.1,29.80,ESE,118,0.0,0.6,84,0.00,,,0.00,WeatherCatV1.15B25,2013-01-12 12:25:00,
2013-01-12 04:30:00,24.9,21.0,30.19,ENE,68,0.0,0.0,85,0.00,,,0.00,LWC V2.11 B50,2013-01-12 12:30:00,
2013-01-12 04:35:00,49.1,44.1,29.80,ESE,118,0.0,0.6,84,0.00,,,0.00,WeatherCatV1.15B25,2013-01-12 12:35:00,
2013-01-12 04:40:00,24.9,21.0,30.19,ENE,68,0.0,0.0,85,0.00,,,0.00,LWC V2.11 B50,2013-01-12 12:40:00,
2013-01-12 04:45:00,49.1,44.1,29.80,ESE,118,0.0,0.6,84,0.00,,,0.00,WeatherCatV1.15B25,2013-01-12 12:45:00,
2013-01-12 04:50:00,24.9,21.0,30.19,ENE,68,0.0,0.0,85,0.00,,,0.00,LWC V2.11 B50,2013-01-12 12:50:00,
2013-01-12 04:55:00,49.1,44.1,29.80,ESE,118,0.0,0.6,84,0.00,,,0.00,WeatherCatV1.15B25,2013-01-12 12:55:00,
2013-01-12 05:00:00,24.9,21.0,30.19,ENE,68,0.0,0.0,85,0.00,,,0.00,LWC V2.11 B50,2013-01-12 13:00:00,
2013-01-12 05:05:00,49.1,44.1,29.80,ESE,118,0.0,0.6,84,0.00,,,0.00,WeatherCatV1.15B25,2013-01-12 13:05:00,
2013-01-12 05:10:00,24.2,19.2,30.19,ENE,68,0.0,0.0,81,0.00,,,0.00,LWC V2.11 B50,2013-01-12 13:10:00,
2013-01-12 05:15:00,49.1,44.1,29.80,ESE,118,0.0,0.6,84,0.00,,,0.00,WeatherCatV1.15B25,2013-01-12 13:15:00,
2013-01-12 05:20:00,24.2,19.2,30.19,ENE,68,0.0,0.0,81,0.00,,,0.00,LWC V2.11 B50,2013-01-12 13:20:00,
2013-01-12 05:25:00,49.1,44.1,29.80,ESE,118,0.0,0.6,84,0.00,,,0.00,WeatherCatV1.15B25,2013-01-12 13:25:00,
2013-01-12 05:30:00,24.2,19.2,30.19,ENE,68,0.0,0.0,81,0.00,,,0.00,LWC V2.11 B50,2013-01-12 13:30:00,
2013-01-12 05:35:00,49.1,44.1,29.80,ESE,118,0.0,0.6,84,0.00,,,0.00,WeatherCatV1.15B25,2013-01-12 13:35:00,
2013-01-12 05:40:00,24.2,19.2,30.19,ENE,68,0.0,0.0,81,0.00,,,0.00,LWC V2.11 B50,2013-01-12 13:40:00,
2013-01-12 05:45:00,49.1,44.1,29.80,ESE,118,0.0,0.6,84,0.00,,,0.00,WeatherCatV1.15B25,2013-01-12 13:45:00,
2013-01-12 05:50:00,24.2,19.2,30.19,ENE,68,0.0,0.0,81,0.00,,,0.00,LWC V2.11 B50,2013-01-12 13:50:00,
2013-01-12 05:55:00,49.1,44.1,29.80,ESE,118,0.0,0.6,84,0.00,,,0.00,WeatherCatV1.15B25,2013-01-12 13:55:00,
2013-01-12 06:00:00,24.2,19.2,30.19,ENE,68,0.0,0.0,81,0.00,,,0.00,LWC V2.11 B50,2013-01-12 14:00:00,
2013-01-12 06:05:00,49.1,44.1,29.80,ESE,118,0.0,0.6,84,0.00,,,0.00,WeatherCatV1.15B25,2013-01-12 14:05:00,
2013-01-12 06:10:00,23.4,16.1,30.20,ENE,68,0.0,0.0,73,0.00,,,0.00,LWC V2.11 B50,2013-01-12 14:10:00,
2013-01-12 06:15:00,49.1,44.1,29.80,ESE,118,0.0,0.6,84,0.00,,,0.00,WeatherCatV1.15B25,2013-01-12 14:15:00,
2013-01-12 06:20:00,23.4,16.1,30.20,ENE,68,0.0,0.0,73,0.00,,,0.00,LWC V2.11 B50,2013-01-12 14:20:00,
2013-01-12 06:25:00,49.1,44.1,29.80,ESE,118,0.0,0.6,84,0.00,,,0.00,WeatherCatV1.15B25,2013-01-12 14:25:00,
2013-01-12 06:30:00,23.4,16.1,30.20,ENE,68,0.0,0.0,73,0.00,,,0.00,LWC V2.11 B50,2013-01-12 14:30:00,
2013-01-12 06:35:00,49.1,44.1,29.80,ESE,118,0.0,0.6,84,0.00,,,0.00,WeatherCatV1.15B25,2013-01-12 14:35:00,
2013-01-12 06:40:00,23.4,16.1,30.20,ENE,68,0.0,0.0,73,0.00,,,0.00,LWC V2.11 B50,2013-01-12 14:40:00,
2013-01-12 06:45:00,49.1,44.1,29.80,ESE,118,0.0,0.6,84,0.00,,,0.00,WeatherCatV1.15B25,2013-01-12 14:45:00,
2013-01-12 06:50:00,23.4,16.1,30.20,ENE,68,0.0,0.0,73,0.00,,,0.00,LWC V2.11 B50,2013-01-12 14:50:00,
2013-01-12 06:55:00,49.1,44.1,29.80,ESE,118,0.0,0.6,84,0.00,,,0.00,WeatherCatV1.15B25,2013-01-12 14:55:00,
2013-01-12 07:00:00,23.4,16.1,30.20,ENE,68,0.0,0.0,73,0.00,,,0.00,LWC V2.11 B50,2013-01-12 15:00:00,
2013-01-12 07:05:00,49.1,44.1,29.80,ESE,118,0.0,0.6,84,0.00,,,0.00,WeatherCatV1.15B25,2013-01-12 15:05:00,
2013-01-12 07:10:00,22.7,18.3,30.22,ENE,68,0.0,0.0,83,0.00,,,0.00,LWC V2.11 B50,2013-01-12 15:10:00,
2013-01-12 07:15:00,49.1,44.1,29.80,ESE,118,0.0,0.6,84,0.00,,,0.00,WeatherCatV1.15B25,2013-01-12 15:15:00,
2013-01-12 07:20:00,22.7,18.3,30.22,ENE,68,0.0,0.0,83,0.00,,,0.00,LWC V2.11 B50,2013-01-12 15:20:00,
2013-01-12 07:25:00,49.1,44.1,29.80,ESE,118,0.0,0.6,84,0.00,,,0.00,WeatherCatV1.15B25,2013-01-12 15:25:00,
2013-01-12 07:30:00,22.7,18.3,30.22,ENE,68,0.0,0.0,83,0.00,,,0.00,LWC V2.11 B50,2013-01-12 15:30:00,
2013-01-12 07:35:00,49.1,44.1,29.80,ESE,118,0.0,0.6,84,0.00,,,0.00,WeatherCatV1.15B25,2013-01-12 15:35:00,
2013-01-12 07:40:00,22.7,18.3,30.22,ENE,68,0.0,0.0,83,0.00,,,0.00,LWC V2.11 B50,2013-01-12 15:40:00,
2013-01-12 07:45:00,49.1,44.1,29.80,ESE,118,0.0,0.6,84,0.00,,,0.00,WeatherCatV1.15B25,2013-01-12 15:45:00,
2013-01-12 07:50:00,22.7,18.3,30.22,ENE,68,0.0,0.0,83,0.00,,,0.00,LWC V2.11 B50,2013-01-12 15:50:00,
2013-01-12 07:55:00,49.1,44.1,29.80,ESE,118,0.0,0.6,84,0.00,,,0.00,WeatherCatV1.15B25,2013-01-12 15:55:00,
2013-01-12 08:00:00,22.7,18.3,30.22,ENE,68,0.0,0.0,83,0.00,,,0.00,LWC V2.11 B50,2013-01-12 16:00:00,
2013-01-12 08:05:00,49.1,44.1,29.80,ESE,118,0.0,0.6,84,0.00,,,0.00,WeatherCatV1.15B25,2013-01-12 16:05:00,
2013-01-12 08:10:00,49.1,44.1,29.80,ESE,118,0.0,0.6,84,0.00,,,0.00,WeatherCatV1.15B25,2013-01-12 16:10:00,
2013-01-12 08:14:00,22.1,18.3,30.24,NNE,20,0.0,0.0,85,0.00,,,0.00,LWC V2.11 B50,2013-01-12 16:14:00,
2013-01-12 08:15:00,49.1,44.1,29.80,ESE,118,0.0,0.6,84,0.00,,,0.00,WeatherCatV1.15B25,2013-01-12 16:15:00,
2013-01-12 08:19:00,22.5,17.0,30.23,NNE,20,0.0,0.0,79,0.00,,,0.00,LWC V2.11 B50,2013-01-12 16:19:00,
2013-01-12 08:20:00,49.1,44.1,29.80,ESE,118,0.0,0.6,84,0.00,,,0.00,WeatherCatV1.15B25,2013-01-12 16:20:00,
2013-01-12 08:24:00,23.4,17.6,30.24,NNE,20,0.0,0.0,78,0.00,,,0.00,LWC V2.11 B50,2013-01-12 16:24:00,
2013-01-12 08:25:00,49.1,44.1,29.80,ESE,118,0.0,0.6,84,0.00,,,0.00,WeatherCatV1.15B25,2013-01-12 16:25:00,
2013-01-12 08:29:00,23.8,17.7,30.24,NNE,20,0.0,0.0,77,0.00,,,0.00,LWC V2.11 B50,2013-01-12 16:29:00,
2013-01-12 08:30:00,49.1,44.1,29.80,ESE,118,0.0,0.6,84,0.00,,,0.00,WeatherCatV1.15B25,2013-01-12 16:30:00,
2013-01-12 08:34:00,24.2,17.1,30.24,NNE,20,0.0,0.0,74,0.00,,,0.00,LWC V2.11 B50,2013-01-12 16:34:00,
2013-01-12 08:35:00,49.1,44.1,29.80,ESE,118,0.0,0.6,84,0.00,,,0.00,WeatherCatV1.15B25,2013-01-12 16:35:00,
2013-01-12 08:39:00,24.8,17.1,30.23,NNE,22,0.0,0.0,72,0.00,,,0.00,LWC V2.11 B50,2013-01-12 16:39:00,
2013-01-12 08:40:00,49.1,44.1,29.80,ESE,118,0.0,0.6,84,0.00,,,0.00,WeatherCatV1.15B25,2013-01-12 16:40:00,
2013-01-12 08:44:00,25.4,16.7,30.23,NNE,21,0.0,0.0,69,0.00,,,0.00,LWC V2.11 B50,2013-01-12 16:44:00,
2013-01-12 08:45:00,49.1,44.1,29.80,ESE,118,0.0,0.6,84,0.00,,,0.00,WeatherCatV1.15B25,2013-01-12 16:45:00,
2013-01-12 08:49:00,26.0,16.2,30.23,NNE,25,0.0,0.0,66,0.00,,,0.00,LWC V2.11 B50,2013-01-12 16:49:00,
2013-01-12 08:50:00,49.1,44.1,29.80,ESE,118,0.0,0.6,84,0.00,,,0.00,WeatherCatV1.15B25,2013-01-12 16:50:00,
2013-01-12 08:54:00,26.5,16.0,30.23,NNE,25,0.0,0.0,64,0.00,,,0.00,LWC V2.11 B50,2013-01-12 16:54:00,
2013-01-12 08:55:00,49.1,44.1,29.80,ESE,118,0.0,0.6,84,0.00,,,0.00,WeatherCatV1.15B25,2013-01-12 16:55:00,
2013-01-12 08:59:00,27.0,16.8,30.23,NNE,25,0.0,0.0,65,0.00,,,0.00,LWC V2.11 B50,2013-01-12 16:59:00,
2013-01-12 09:00:00,49.1,44.1,29.80,ESE,118,0.0,0.6,84,0.00,,,0.00,WeatherCatV1.15B25,2013-01-12 17:00:00,
2013-01-12 09:04:00,27.2,15.6,30.23,NNE,25,0.0,0.0,61,0.00,,,0.00,LWC V2.11 B50,2013-01-12 17:04:00,
2013-01-12 09:05:00,49.1,44.1,29.80,ESE,118,0.0,0.6,84,0.00,,,0.00,WeatherCatV1.15B25,2013-01-12 17:05:00,
2013-01-12 09:09:00,27.3,15.3,30.23,NNE,25,0.0,0.0,60,0.00,,,0.00,LWC V2.11 B50,2013-01-12 17:09:00,
2013-01-12 09:10:00,49.1,44.1,29.80,ESE,118,0.0,0.6,84,0.00,,,0.00,WeatherCatV1.15B25,2013-01-12 17:10:00,
2013-01-12 09:14:00,27.5,15.5,30.23,NNE,25,0.0,0.0,60,0.00,,,0.00,LWC V2.11 B50,2013-01-12 17:14:00,
2013-01-12 09:15:00,49.1,44.1,29.80,ESE,118,0.0,0.6,84,0.00,,,0.00,WeatherCatV1.15B25,2013-01-12 17:15:00,
2013-01-12 09:19:00,28.0,15.9,30.23,NNW,334,0.0,0.0,60,0.00,,,0.00,LWC V2.11 B50,2013-01-12 17:19:00,
2013-01-12 09:20:00,49.1,44.1,29.80,ESE,118,0.0,0.6,84,0.00,,,0.00,WeatherCatV1.15B25,2013-01-12 17:20:00,
2013-01-12 09:24:00,28.3,16.6,30.23,NNW,335,0.0,0.0,61,0.00,,,0.00,LWC V2.11 B50,2013-01-12 17:24:00,
2013-01-12 09:25:00,49.1,44.1,29.80,ESE,118,0.0,0.6,84,0.00,,,0.00,WeatherCatV1.15B25,2013-01-12 17:25:00,
2013-01-12 09:29:00,28.8,16.3,30.23,North,351,0.0,0.0,59,0.00,,,0.00,LWC V2.11 B50,2013-01-12 17:29:00,
2013-01-12 09:30:00,49.1,44.1,29.80,ESE,118,0.0,0.6,84,0.00,,,0.00,WeatherCatV1.15B25,2013-01-12 17:30:00,
2013-01-12 09:34:00,29.6,16.7,30.23,North,353,0.0,0.0,58,0.00,,,0.00,LWC V2.11 B50,2013-01-12 17:34:00,
2013-01-12 09:35:00,49.1,44.1,29.80,ESE,118,0.0,0.6,84,0.00,,,0.00,WeatherCatV1.15B25,2013-01-12 17:35:00,
2013-01-12 09:39:00,30.1,16.7,30.23,North,353,0.0,0.0,57,0.00,,,0.00,LWC V2.11 B50,2013-01-12 17:39:00,
2013-01-12 09:40:00,49.1,44.1,29.80,ESE,118,0.0,0.6,84,0.00,,,0.00,WeatherCatV1.15B25,2013-01-12 17:40:00,
2013-01-12 09:44:00,30.6,17.6,30.23,NNE,19,0.0,0.0,58,0.00,,,0.00,LWC V2.11 B50,2013-01-12 17:44:00,
2013-01-12 09:45:00,49.1,44.1,29.80,ESE,118,0.0,0.6,84,0.00,,,0.00,WeatherCatV1.15B25,2013-01-12 17:45:00,
2013-01-12 09:49:00,30.9,16.2,30.22,NNE,19,0.0,0.0,54,0.00,,,0.00,LWC V2.11 B50,2013-01-12 17:49:00,
2013-01-12 09:50:00,49.1,44.1,29.80,ESE,118,0.0,0.6,84,0.00,,,0.00,WeatherCatV1.15B25,2013-01-12 17:50:00,
2013-01-12 09:54:00,31.4,16.7,30.22,West,270,0.0,0.0,54,0.00,,,0.00,LWC V2.11 B50,2013-01-12 17:54:00,
2013-01-12 09:55:00,49.1,44.1,29.80,ESE,118,0.0,0.6,84,0.00,,,0.00,WeatherCatV1.15B25,2013-01-12 17:55:00,
2013-01-12 09:59:00,31.7,17.4,30.22,East,96,0.0,1.0,55,0.00,,,0.00,LWC V2.11 B50,2013-01-12 17:59:00,
2013-01-12 10:00:00,49.1,44.1,29.80,ESE,118,0.0,0.6,84,0.00,,,0.00,WeatherCatV1.15B25,2013-01-12 18:00:00,
2013-01-12 10:04:00,32.1,18.2,30.22,SSE,167,0.0,1.0,56,0.00,,,0.00,LWC V2.11 B50,2013-01-12 18:04:00,
2013-01-12 10:05:00,49.1,44.1,29.80,ESE,118,0.0,0.6,84,0.00,,,0.00,WeatherCatV1.15B25,2013-01-12 18:05:00,
2013-01-12 10:09:00,32.7,16.1,30.22,WNW,293,1.0,3.0,50,0.00,,,0.00,LWC V2.11 B50,2013-01-12 18:09:00,
2013-01-12 10:10:00,49.1,44.1,29.80,ESE,118,0.0,0.6,84,0.00,,,0.00,WeatherCatV1.15B25,2013-01-12 18:10:00,
2013-01-12 10:14:00,33.2,15.7,30.23,West,274,0.0,0.0,48,0.00,,,0.00,LWC V2.11 B50,2013-01-12 18:14:00,
2013-01-12 10:15:00,49.1,44.1,29.80,ESE,118,0.0,0.6,84,0.00,,,0.00,WeatherCatV1.15B25,2013-01-12 18:15:00,
2013-01-12 10:19:00,33.7,17.1,30.22,ENE,75,1.0,1.0,50,0.00,,,0.00,LWC V2.11 B50,2013-01-12 18:19:00,
2013-01-12 10:20:00,49.1,44.1,29.80,ESE,118,0.0,0.6,84,0.00,,,0.00,WeatherCatV1.15B25,2013-01-12 18:20:00,
2013-01-12 10:24:00,34.3,16.2,30.22,WSW,246,0.0,0.0,47,0.00,,,0.00,LWC V2.11 B50,2013-01-12 18:24:00,
2013-01-12 10:25:00,49.1,44.1,29.80,ESE,118,0.0,0.6,84,0.00,,,0.00,WeatherCatV1.15B25,2013-01-12 18:25:00,
2013-01-12 10:29:00,34.6,16.5,30.22,WSW,246,0.0,0.0,47,0.00,,,0.00,LWC V2.11 B50,2013-01-12 18:29:00,
2013-01-12 10:30:00,49.1,44.1,29.80,ESE,118,0.0,0.6,84,0.00,,,0.00,WeatherCatV1.15B25,2013-01-12 18:30:00,
2013-01-12 10:34:00,34.9,16.7,30.22,SE,127,0.0,0.0,47,0.00,,,0.00,LWC V2.11 B50,2013-01-12 18:34:00,
2013-01-12 10:35:00,49.1,44.1,29.80,ESE,118,0.0,0.6,84,0.00,,,0.00,WeatherCatV1.15B25,2013-01-12 18:35:00,
2013-01-12 10:39:00,35.1,16.4,30.22,SE,144,0.0,0.0,46,0.00,,,0.00,LWC V2.11 B50,2013-01-12 18:39:00,
2013-01-12 10:40:00,49.1,44.1,29.80,ESE,118,0.0,0.6,84,0.00,,,0.00,WeatherCatV1.15B25,2013-01-12 18:40:00,
2013-01-12 10:44:00,35.4,15.7,30.22,SE,125,1.0,2.0,44,0.00,,,0.00,LWC V2.11 B50,2013-01-12 18:44:00,
2013-01-12 10:45:00,49.1,44.1,29.80,ESE,118,0.0,0.6,84,0.00,,,0.00,WeatherCatV1.15B25,2013-01-12 18:45:00,
2013-01-12 10:49:00,35.7,16.0,30.22,ESE,122,0.0,1.0,44,0.00,,,0.00,LWC V2.11 B50,2013-01-12 18:49:00,
2013-01-12 10:50:00,49.1,44.1,29.80,ESE,118,0.0,0.6,84,0.00,,,0.00,WeatherCatV1.15B25,2013-01-12 18:50:00,
2013-01-12 10:54:00,35.9,16.1,30.22,South,176,0.0,1.0,44,0.00,,,0.00,LWC V2.11 B50,2013-01-12 18:54:00,
2013-01-12 10:55:00,49.1,44.1,29.80,ESE,118,0.0,0.6,84,0.00,,,0.00,WeatherCatV1.15B25,2013-01-12 18:55:00,
2013-01-12 10:59:00,36.4,16.1,30.22,East,84,0.0,0.0,43,0.00,,,0.00,LWC V2.11 B50,2013-01-12 18:59:00,
2013-01-12 11:00:00,49.1,44.1,29.80,ESE,118,0.0,0.6,84,0.00,,,0.00,WeatherCatV1.15B25,2013-01-12 19:00:00,
2013-01-12 11:04:00,36.8,17.0,30.21,East,85,0.0,0.0,44,0.00,,,0.00,LWC V2.11 B50,2013-01-12 19:04:00,
2013-01-12 11:05:00,49.1,44.1,29.80,ESE,118,0.0,0.6,84,0.00,,,0.00,WeatherCatV1.15B25,2013-01-12 19:05:00,
2013-01-12 11:09:00,37.1,17.7,30.21,NNW,338,0.0,0.0,45,0.00,,,0.00,LWC V2.11 B50,2013-01-12 19:09:00,
2013-01-12 11:10:00,49.1,44.1,29.80,ESE,118,0.0,0.6,84,0.00,,,0.00,WeatherCatV1.15B25,2013-01-12 19:10:00,
2013-01-12 11:14:00,37.3,17.4,30.21,SW,222,0.0,0.0,44,0.00,,,0.00,LWC V2.11 B50,2013-01-12 19:14:00,
2013-01-12 11:15:00,49.1,44.1,29.80,ESE,118,0.0,0.6,84,0.00,,,0.00,WeatherCatV1.15B25,2013-01-12 19:15:00,
2013-01-12 11:19:00,37.6,14.9,30.21,WSW,250,2.0,3.0,39,0.00,,,0.00,LWC V2.11 B50,2013-01-12 19:19:00,
2013-01-12 11:20:00,49.1,44.1,29.80,ESE,118,0.0,0.6,84,0.00,,,0.00,WeatherCatV1.15B25,2013-01-12 19:20:00,
2013-01-12 11:24:00,37.9,15.2,30.20,ESE,122,0.0,0.0,39,0.00,,,0.00,LWC V2.11 B50,2013-01-12 19:24:00,
2013-01-12 11:25:00,49.1,44.1,29.80,ESE,118,0.0,0.6,84,0.00,,,0.00,WeatherCatV1.15B25,2013-01-12 19:25:00,
2013-01-12 11:29:00,38.7,15.9,30.20,West,266,0.0,0.0,39,0.00,,,0.00,LWC V2.11 B50,2013-01-12 19:29:00,
2013-01-12 11:30:00,49.1,44.1,29.80,ESE,118,0.0,0.6,84,0.00,,,0.00,WeatherCatV1.15B25,2013-01-12 19:30:00,
2013-01-12 11:34:00,38.9,15.5,30.20,West,262,1.0,1.0,38,0.00,,,0.00,LWC V2.11 B50,2013-01-12 19:34:00,
2013-01-12 11:35:00,49.1,44.1,29.80,ESE,118,0.0,0.6,84,0.00,,,0.00,WeatherCatV1.15B25,2013-01-12 19:35:00,
2013-01-12 11:39:00,38.9,15.5,30.19,SSW,198,0.0,1.0,38,0.00,,,0.00,LWC V2.11 B50,2013-01-12 19:39:00,
2013-01-12 11:40:00,49.1,44.1,29.80,ESE,118,0.0,0.6,84,0.00,,,0.00,WeatherCatV1.15B25,2013-01-12 19:40:00,
2013-01-12 11:44:00,39.0,16.2,30.19,West,273,0.0,3.0,39,0.00,,,0.00,LWC V2.11 B50,2013-01-12 19:44:00,
2013-01-12 11:45:00,49.1,44.1,29.80,ESE,118,0.0,0.6,84,0.00,,,0.00,WeatherCatV1.15B25,2013-01-12 19:45:00,
2013-01-12 11:49:00,39.1,15.7,30.19,SE,139,1.0,3.0,38,0.00,,,0.00,LWC V2.11 B50,2013-01-12 19:49:00,
2013-01-12 11:50:00,49.1,44.1,29.80,ESE,118,0.0,0.6,84,0.00,,,0.00,WeatherCatV1.15B25,2013-01-12 19:50:00,
2013-01-12 11:54:00,39.9,17.0,30.19,SSW,207,0.0,0.0,39,0.00,,,0.00,LWC V2.11 B50,2013-01-12 19:54:00,
2013-01-12 11:55:00,49.1,44.1,29.80,ESE,118,0.0,0.6,84,0.00,,,0.00,WeatherCatV1.15B25,2013-01-12 19:55:00,
2013-01-12 11:59:00,40.6,17.6,30.19,WSW,256,0.0,0.0,39,0.00,,,0.00,LWC V2.11 B50,2013-01-12 19:59:00,
2013-01-12 12:00:00,49.1,44.1,29.80,ESE,118,0.0,0.6,84,0.00,,,0.00,WeatherCatV1.15B25,2013-01-12 20:00:00,
2013-01-12 12:04:00,39.9,15.1,30.18,WSW,252,4.0,4.0,36,0.00,,,0.00,LWC V2.11 B50,2013-01-12 20:04:00,
2013-01-12 12:05:00,49.1,44.1,29.80,ESE,118,0.0,0.6,84,0.00,,,0.00,WeatherCatV1.15B25,2013-01-12 20:05:00,
2013-01-12 12:09:00,39.7,15.6,30.18,WSW,250,2.0,2.0,37,0.00,,,0.00,LWC V2.11 B50,2013-01-12 20:09:00,
2013-01-12 12:10:00,49.1,44.1,29.80,ESE,118,0.0,0.6,84,0.00,,,0.00,WeatherCatV1.15B25,2013-01-12 20:10:00,
2013-01-12 12:14:00,39.5,14.1,30.18,WNW,284,1.0,3.0,35,0.00,,,0.00,LWC V2.11 B50,2013-01-12 20:14:00,
2013-01-12 12:15:00,49.1,44.1,29.80,ESE,118,0.0,0.6,84,0.00,,,0.00,WeatherCatV1.15B25,2013-01-12 20:15:00,
2013-01-12 12:19:00,39.4,15.3,30.18,SW,227,2.0,2.0,37,0.00,,,0.00,LWC V2.11 B50,2013-01-12 20:19:00,
2013-01-12 12:20:00,49.1,44.1,29.80,ESE,118,0.0,0.6,84,0.00,,,0.00,WeatherCatV1.15B25,2013-01-12 20:20:00,
2013-01-12 12:24:00,39.8,15.0,30.18,WSW,256,3.0,4.0,36,0.00,,,0.00,LWC V2.11 B50,2013-01-12 20:24:00,
2013-01-12 12:25:00,49.1,44.1,29.80,ESE,118,0.0,0.6,84,0.00,,,0.00,WeatherCatV1.15B25,2013-01-12 20:25:00,
2013-01-12 12:29:00,39.6,17.3,30.17,West,280,2.0,2.0,40,0.00,,,0.00,LWC V2.11 B50,2013-01-12 20:29:00,
2013-01-12 12:30:00,49.1,44.1,29.80,ESE,118,0.0,0.6,84,0.00,,,0.00,WeatherCatV1.15B25,2013-01-12 20:30:00,
2013-01-12 12:34:00,39.6,17.9,30.17,WSW,257,1.0,1.0,41,0.00,,,0.00,LWC V2.11 B50,2013-01-12 20:34:00,
2013-01-12 12:35:00,49.1,44.1,29.80,ESE,118,0.0,0.6,84,0.00,,,0.00,WeatherCatV1.15B25,2013-01-12 20:35:00,
2013-01-12 12:39:00,39.6,17.9,30.17,West,262,1.0,1.0,41,0.00,,,0.00,LWC V2.11 B50,2013-01-12 20:39:00,
2013-01-12 12:40:00,49.1,44.0,29.80,ESE,118,0.0,0.6,84,0.00,,,0.00,WeatherCatV1.15B25,2013-01-12 20:40:00,
2013-01-12 12:44:00,39.4,18.8,30.17,WSW,245,4.0,4.0,43,0.00,,,0.00,LWC V2.11 B50,2013-01-12 20:44:00,
2013-01-12 12:45:00,49.1,44.0,29.80,ESE,118,0.0,0.6,84,0.00,,,0.00,WeatherCatV1.15B25,2013-01-12 20:45:00,
2013-01-12 12:49:00,39.2,18.1,30.16,WSW,250,2.0,3.0,42,0.00,,,0.00,LWC V2.11 B50,2013-01-12 20:49:00,
2013-01-12 12:50:00,49.1,44.0,29.80,ESE,118,0.0,0.6,84,0.00,,,0.00,WeatherCatV1.15B25,2013-01-12 20:50:00,
2013-01-12 12:54:00,39.2,19.1,30.16,WSW,240,0.0,5.0,44,0.00,,,0.00,LWC V2.11 B50,2013-01-12 20:54:00,
2013-01-12 12:55:00,49.1,44.0,29.80,ESE,118,0.0,0.6,84,0.00,,,0.00,WeatherCatV1.15B25,2013-01-12 20:55:00,
2013-01-12 12:59:00,39.1,19.6,30.16,WSW,250,0.0,5.0,45,0.00,,,0.00,LWC V2.11 B50,2013-01-12 20:59:00,
2013-01-12 13:00:00,49.1,44.0,29.80,ESE,118,0.0,0.6,84,0.00,,,0.00,WeatherCatV1.15B25,2013-01-12 21:00:00,
2013-01-12 13:04:00,39.3,20.3,30.16,WSW,250,3.0,3.0,46,0.00,,,0.00,LWC V2.11 B50,2013-01-12 21:04:00,
2013-01-12 13:05:00,49.1,44.0,29.80,ESE,118,0.0,0.6,84,0.00,,,0.00,WeatherCatV1.15B25,2013-01-12 21:05:00,
2013-01-12 13:09:00,39.4,19.3,30.16,West,259,2.0,3.0,44,0.00,,,0.00,LWC V2.11 B50,2013-01-12 21:09:00,
2013-01-12 13:10:00,49.1,44.0,29.80,ESE,118,0.0,0.6,84,0.00,,,0.00,WeatherCatV1.15B25,2013-01-12 21:10:00,
2013-01-12 13:14:00,39.7,20.1,30.16,ESE,120,0.0,1.0,45,0.00,,,0.00,LWC V2.11 B50,2013-01-12 21:14:00,
2013-01-12 13:15:00,49.1,44.0,29.80,ESE,118,0.0,0.6,84,0.00,,,0.00,WeatherCatV1.15B25,2013-01-12 21:15:00,
2013-01-12 13:19:00,40.2,20.6,30.16,WSW,239,1.0,2.0,45,0.00,,,0.00,LWC V2.11 B50,2013-01-12 21:19:00,
2013-01-12 13:20:00,49.1,44.0,29.80,ESE,118,0.0,0.6,84,0.00,,,0.00,WeatherCatV1.15B25,2013-01-12 21:20:00,
2013-01-12 13:24:00,40.4,21.3,30.16,SW,231,2.0,4.0,46,0.00,,,0.00,LWC V2.11 B50,2013-01-12 21:24:00,
2013-01-12 13:25:00,49.1,44.0,29.80,ESE,118,0.0,0.6,84,0.00,,,0.00,WeatherCatV1.15B25,2013-01-12 21:25:00,
2013-01-12 13:29:00,40.1,22.5,30.16,West,276,0.0,1.0,49,0.00,,,0.00,LWC V2.11 B50,2013-01-12 21:29:00,
2013-01-12 13:30:00,49.1,44.0,29.80,ESE,118,0.0,0.6,84,0.00,,,0.00,WeatherCatV1.15B25,2013-01-12 21:30:00,
2013-01-12 13:34:00,40.5,21.9,30.16,SSE,165,1.0,5.0,47,0.00,,,0.00,LWC V2.11 B50,2013-01-12 21:34:00,
2013-01-12 13:35:00,49.1,44.0,29.80,ESE,118,0.0,0.6,84,0.00,,,0.00,WeatherCatV1.15B25,2013-01-12 21:35:00,
2013-01-12 13:39:00,40.5,21.9,30.16,WSW,257,0.0,4.0,47,0.00,,,0.00,LWC V2.11 B50,2013-01-12 21:39:00,
2013-01-12 13:40:00,49.1,44.0,29.80,ESE,118,0.0,0.6,84,0.00,,,0.00,WeatherCatV1.15B25,2013-01-12 21:40:00,
2013-01-12 13:44:00,40.3,22.7,30.16,WSW,252,2.0,3.0,49,0.00,,,0.00,LWC V2.11 B50,2013-01-12 21:44:00,
2013-01-12 13:45:00,49.1,44.0,29.80,ESE,118,0.0,0.6,84,0.00,,,0.00,WeatherCatV1.15B25,2013-01-12 21:45:00,
2013-01-12 13:49:00,40.2,22.6,30.16,West,266,0.0,5.0,49,0.00,,,0.00,LWC V2.11 B50,2013-01-12 21:49:00,
2013-01-12 13:50:00,49.1,44.0,29.80,ESE,118,0.0,0.6,84,0.00,,,0.00,WeatherCatV1.15B25,2013-01-12 21:50:00,
2013-01-12 13:54:00,40.0,23.3,30.16,West,278,2.0,5.0,51,0.00,,,0.00,LWC V2.11 B50,2013-01-12 21:54:00,
2013-01-12 13:55:00,49.1,44.0,29.80,ESE,118,0.0,0.6,84,0.00,,,0.00,WeatherCatV1.15B25,2013-01-12 21:55:00,
2013-01-12 13:59:00,40.2,23.1,30.15,SSE,159,3.0,4.0,50,0.00,,,0.00,LWC V2.11 B50,2013-01-12 21:59:00,
2013-01-12 14:00:00,49.1,44.0,29.80,ESE,118,0.0,0.6,84,0.00,,,0.00,WeatherCatV1.15B25,2013-01-12 22:00:00,
2013-01-12 14:04:00,40.9,23.2,30.15,South,171,0.0,2.0,49,0.00,,,0.00,LWC V2.11 B50,2013-01-12 22:04:00,
2013-01-12 14:05:00,49.1,44.0,29.80,ESE,118,0.0,0.6,84,0.00,,,0.00,WeatherCatV1.15B25,2013-01-12 22:05:00,
2013-01-12 14:09:00,40.4,23.2,30.15,WSW,250,1.0,6.0,50,0.00,,,0.00,LWC V2.11 B50,2013-01-12 22:09:00,
2013-01-12 14:10:00,49.1,44.0,29.80,ESE,118,0.0,0.6,84,0.00,,,0.00,WeatherCatV1.15B25,2013-01-12 22:10:00,
2013-01-12 14:14:00,40.1,24.4,30.16,SW,231,1.0,7.0,53,0.00,,,0.00,LWC V2.11 B50,2013-01-12 22:14:00,
2013-01-12 14:15:00,49.1,44.0,29.80,ESE,118,0.0,0.6,84,0.00,,,0.00,WeatherCatV1.15B25,2013-01-12 22:15:00,
2013-01-12 14:19:00,39.9,24.2,30.16,WSW,245,0.0,0.0,53,0.00,,,0.00,LWC V2.11 B50,2013-01-12 22:19:00,
2013-01-12 14:20:00,49.1,44.0,29.80,ESE,118,0.0,0.6,84,0.00,,,0.00,WeatherCatV1.15B25,2013-01-12 22:20:00,
2013-01-12 14:24:00,39.6,23.4,30.15,WSW,253,0.0,4.0,52,0.00,,,0.00,LWC V2.11 B50,2013-01-12 22:24:00,
2013-01-12 14:25:00,49.1,44.0,29.80,ESE,118,0.0,0.6,84,0.00,,,0.00,WeatherCatV1.15B25,2013-01-12 22:25:00,
2013-01-12 14:29:00,39.5,23.3,30.16,SSW,193,1.0,3.0,52,0.00,,,0.00,LWC V2.11 B50,2013-01-12 22:29:00,
2013-01-12 14:30:00,49.1,44.0,29.80,ESE,118,0.0,0.6,84,0.00,,,0.00,WeatherCatV1.15B25,2013-01-12 22:30:00,
2013-01-12 14:34:00,39.4,23.3,30.15,SE,139,0.0,0.0,52,0.00,,,0.00,LWC V2.11 B50,2013-01-12 22:34:00,
2013-01-12 14:35:00,49.1,44.0,29.80,ESE,118,0.0,0.6,84,0.00,,,0.00,WeatherCatV1.15B25,2013-01-12 22:35:00,
2013-01-12 14:39:00,39.4,23.7,30.16,SSW,200,0.0,1.0,53,0.00,,,0.00,LWC V2.11 B50,2013-01-12 22:39:00,
2013-01-12 14:40:00,49.1,44.0,29.80,ESE,118,0.0,0.6,84,0.00,,,0.00,WeatherCatV1.15B25,2013-01-12 22:40:00,
2013-01-12 14:44:00,39.4,24.2,30.16,WSW,248,0.0,0.0,54,0.00,,,0.00,LWC V2.11 B50,2013-01-12 22:44:00,
2013-01-12 14:45:00,49.1,44.0,29.80,ESE,118,0.0,0.6,84,0.00,,,0.00,WeatherCatV1.15B25,2013-01-12 22:45:00,
2013-01-12 14:49:00,39.1,23.4,30.15,WSW,248,1.0,2.0,53,0.00,,,0.00,LWC V2.11 B50,2013-01-12 22:49:00,
2013-01-12 14:50:00,49.1,44.0,29.80,ESE,118,0.0,0.6,84,0.00,,,0.00,WeatherCatV1.15B25,2013-01-12 22:50:00,
2013-01-12 14:54:00,38.9,23.7,30.15,South,179,0.0,3.0,54,0.00,,,0.00,LWC V2.11 B50,2013-01-12 22:54:00,
2013-01-12 14:55:00,49.1,44.0,29.80,ESE,118,0.0,0.6,84,0.00,,,0.00,WeatherCatV1.15B25,2013-01-12 22:55:00,
2013-01-12 14:59:00,38.9,23.2,30.15,West,262,0.0,0.0,53,0.00,,,0.00,LWC V2.11 B50,2013-01-12 22:59:00,
2013-01-12 15:00:00,49.1,44.0,29.80,ESE,118,0.0,0.6,84,0.00,,,0.00,WeatherCatV1.15B25,2013-01-12 23:00:00,
2013-01-12 15:04:00,38.8,24.0,30.15,WSW,246,0.0,0.0,55,0.00,,,0.00,LWC V2.11 B50,2013-01-12 23:04:00,
2013-01-12 15:05:00,49.1,44.0,29.80,ESE,118,0.0,0.6,84,0.00,,,0.00,WeatherCatV1.15B25,2013-01-12 23:05:00,
2013-01-12 15:09:00,38.5,23.3,30.15,WSW,245,3.0,4.0,54,0.00,,,0.00,LWC V2.11 B50,2013-01-12 23:09:00,
2013-01-12 15:10:00,49.1,44.0,29.80,ESE,118,0.0,0.6,84,0.00,,,0.00,WeatherCatV1.15B25,2013-01-12 23:10:00,
2013-01-12 15:14:00,38.5,23.3,30.15,WSW,245,1.0,2.0,54,0.00,,,0.00,LWC V2.11 B50,2013-01-12 23:14:00,
2013-01-12 15:15:00,49.1,44.0,29.80,ESE,118,0.0,0.6,84,0.00,,,0.00,WeatherCatV1.15B25,2013-01-12 23:15:00,
2013-01-12 15:19:00,38.5,23.3,30.15,WSW,256,0.0,1.0,54,0.00,,,0.00,LWC V2.11 B50,2013-01-12 23:19:00,
2013-01-12 15:20:00,49.1,44.0,29.80,ESE,118,0.0,0.6,84,0.00,,,0.00,WeatherCatV1.15B25,2013-01-12 23:20:00,
2013-01-12 15:24:00,38.5,23.3,30.16,WSW,252,0.0,0.0,54,0.00,,,0.00,LWC V2.11 B50,2013-01-12 23:24:00,
2013-01-12 15:25:00,49.1,44.0,29.80,ESE,118,0.0,0.6,84,0.00,,,0.00,WeatherCatV1.15B25,2013-01-12 23:25:00,
2013-01-12 15:29:00,38.5,23.3,30.16,WSW,250,0.0,1.0,54,0.00,,,0.00,LWC V2.11 B50,2013-01-12 23:29:00,
2013-01-12 15:30:00,49.1,44.0,29.80,ESE,118,0.0,0.6,84,0.00,,,0.00,WeatherCatV1.15B25,2013-01-12 23:30:00,
2013-01-12 15:34:00,38.5,22.9,30.16,WSW,257,0.0,0.0,53,0.00,,,0.00,LWC V2.11 B50,2013-01-12 23:34:00,
2013-01-12 15:35:00,49.1,44.0,29.80,ESE,118,0.0,0.6,84,0.00,,,0.00,WeatherCatV1.15B25,2013-01-12 23:35:00,
2013-01-12 15:39:00,38.4,22.8,30.15,SE,138,0.0,1.0,53,0.00,,,0.00,LWC V2.11 B50,2013-01-12 23:39:00,
2013-01-12 15:40:00,49.1,44.0,29.80,ESE,118,0.0,0.6,84,0.00,,,0.00,WeatherCatV1.15B25,2013-01-12 23:40:00,
2013-01-12 15:44:00,38.5,22.9,30.15,West,272,0.0,1.0,53,0.00,,,0.00,LWC V2.11 B50,2013-01-12 23:44:00,
2013-01-12 15:45:00,49.1,44.0,29.80,ESE,118,0.0,0.6,84,0.00,,,0.00,WeatherCatV1.15B25,2013-01-12 23:45:00,
2013-01-12 15:49:00,38.8,22.7,30.16,WSW,253,2.0,2.0,52,0.00,,,0.00,LWC V2.11 B50,2013-01-12 23:49:00,
2013-01-12 15:50:00,49.1,44.0,29.80,ESE,118,0.0,0.6,84,0.00,,,0.00,WeatherCatV1.15B25,2013-01-12 23:50:00,
2013-01-12 15:54:00,38.5,22.4,30.15,SW,221,0.0,1.0,52,0.00,,,0.00,LWC V2.11 B50,2013-01-12 23:54:00,
2013-01-12 15:55:00,49.1,44.0,29.80,ESE,118,0.0,0.6,84,0.00,,,0.00,WeatherCatV1.15B25,2013-01-12 23:55:00,
2013-01-12 15:59:00,38.3,22.2,30.15,WSW,257,0.0,0.0,52,0.00,,,0.00,LWC V2.11 B50,2013-01-12 23:59:00,
2013-01-12 16:00:00,49.1,44.0,29.80,ESE,118,0.0,0.6,84,0.00,,,0.00,WeatherCatV1.15B25,2013-01-13 00:00:00,
2013-01-12 16:04:00,38.2,21.7,30.15,SSW,196,0.0,0.0,51,0.00,,,0.00,LWC V2.11 B50,2013-01-13 00:04:00,
2013-01-12 16:05:00,49.1,44.0,29.80,ESE,118,0.0,0.6,84,0.00,,,0.00,WeatherCatV1.15B25,2013-01-13 00:05:00,
2013-01-12 16:09:00,38.1,21.6,30.15,West,262,0.0,0.0,51,0.00,,,0.00,LWC V2.11 B50,2013-01-13 00:09:00,
2013-01-12 16:10:00,49.1,44.0,29.80,ESE,118,0.0,0.6,84,0.00,,,0.00,WeatherCatV1.15B25,2013-01-13 00:10:00,
2013-01-12 16:14:00,37.8,21.3,30.15,SSW,201,0.0,0.0,51,0.00,,,0.00,LWC V2.11 B50,2013-01-13 00:14:00,
2013-01-12 16:15:00,49.1,44.0,29.80,ESE,118,0.0,0.6,84,0.00,,,0.00,WeatherCatV1.15B25,2013-01-13 00:15:00,
2013-01-12 16:19:00,37.7,22.1,30.15,West,259,0.0,0.0,53,0.00,,,0.00,LWC V2.11 B50,2013-01-13 00:19:00,
2013-01-12 16:20:00,49.1,44.0,29.80,ESE,118,0.0,0.6,84,0.00,,,0.00,WeatherCatV1.15B25,2013-01-13 00:20:00,
2013-01-12 16:24:00,37.6,22.0,30.16,West,259,0.0,0.0,53,0.00,,,0.00,LWC V2.11 B50,2013-01-13 00:24:00,
2013-01-12 16:25:00,49.1,44.0,29.80,ESE,118,0.0,0.6,84,0.00,,,0.00,WeatherCatV1.15B25,2013-01-13 00:25:00,
2013-01-12 16:29:00,37.4,21.4,30.16,West,270,0.0,0.0,52,0.00,,,0.00,LWC V2.11 B50,2013-01-13 00:29:00,
2013-01-12 16:30:00,49.1,44.0,29.80,ESE,118,0.0,0.6,84,0.00,,,0.00,WeatherCatV1.15B25,2013-01-13 00:30:00,
2013-01-12 16:34:00,37.2,21.7,30.16,West,269,0.0,0.0,53,0.00,,,0.00,LWC V2.11 B50,2013-01-13 00:34:00,
2013-01-12 16:35:00,49.1,44.0,29.80,ESE,118,0.0,0.6,84,0.00,,,0.00,WeatherCatV1.15B25,2013-01-13 00:35:00,
2013-01-12 16:39:00,37.0,21.5,30.16,West,270,0.0,0.0,53,0.00,,,0.00,LWC V2.11 B50,2013-01-13 00:39:00,
2013-01-12 16:40:00,49.1,44.0,29.80,ESE,118,0.0,0.6,84,0.00,,,0.00,WeatherCatV1.15B25,2013-01-13 00:40:00,
2013-01-12 16:44:00,36.8,21.3,30.16,West,269,0.0,0.0,53,0.00,,,0.00,LWC V2.11 B50,2013-01-13 00:44:00,
2013-01-12 16:45:00,49.1,44.0,29.80,ESE,118,0.0,0.6,84,0.00,,,0.00,WeatherCatV1.15B25,2013-01-13 00:45:00,
2013-01-12 16:49:00,36.6,21.5,30.16,West,269,0.0,0.0,54,0.00,,,0.00,LWC V2.11 B50,2013-01-13 00:49:00,
2013-01-12 16:50:00,49.1,44.0,29.80,ESE,118,0.0,0.6,84,0.00,,,0.00,WeatherCatV1.15B25,2013-01-13 00:50:00,
2013-01-12 16:54:00,36.5,21.5,30.16,West,270,0.0,0.0,54,0.00,,,0.00,LWC V2.11 B50,2013-01-13 00:54:00,
2013-01-12 16:55:00,49.1,44.0,29.80,ESE,118,0.0,0.6,84,0.00,,,0.00,WeatherCatV1.15B25,2013-01-13 00:55:00,
2013-01-12 16:59:00,36.4,21.4,30.16,West,270,0.0,0.0,54,0.00,,,0.00,LWC V2.11 B50,2013-01-13 00:59:00,
2013-01-12 17:00:00,49.1,44.0,29.80,ESE,118,0.0,0.6,84,0.00,,,0.00,WeatherCatV1.15B25,2013-01-13 01:00:00,
2013-01-12 17:04:00,36.2,21.6,30.17,West,269,0.0,0.0,55,0.00,,,0.00,LWC V2.11 B50,2013-01-13 01:04:00,
2013-01-12 17:05:00,49.1,44.0,29.80,ESE,118,0.0,0.6,84,0.00,,,0.00,WeatherCatV1.15B25,2013-01-13 01:05:00,
2013-01-12 17:09:00,35.9,21.3,30.17,West,269,0.0,0.0,55,0.00,,,0.00,LWC V2.11 B50,2013-01-13 01:09:00,
2013-01-12 17:10:00,49.1,44.0,29.80,ESE,118,0.0,0.6,84,0.00,,,0.00,WeatherCatV1.15B25,2013-01-13 01:10:00,
2013-01-12 17:14:00,35.7,22.0,30.17,West,270,0.0,0.0,57,0.00,,,0.00,LWC V2.11 B50,2013-01-13 01:14:00,
2013-01-12 17:15:00,49.1,44.0,29.80,ESE,118,0.0,0.6,84,0.00,,,0.00,WeatherCatV1.15B25,2013-01-13 01:15:00,
2013-01-12 17:19:00,35.5,21.8,30.17,West,270,0.0,0.0,57,0.00,,,0.00,LWC V2.11 B50,2013-01-13 01:19:00,
2013-01-12 17:20:00,49.1,44.0,29.80,ESE,118,0.0,0.6,84,0.00,,,0.00,WeatherCatV1.15B25,2013-01-13 01:20:00,
2013-01-12 17:24:00,35.2,21.9,30.17,West,270,0.0,0.0,58,0.00,,,0.00,LWC V2.11 B50,2013-01-13 01:24:00,
2013-01-12 17:25:00,49.1,44.0,29.80,ESE,118,0.0,0.6,84,0.00,,,0.00,WeatherCatV1.15B25,2013-01-13 01:25:00,
2013-01-12 17:29:00,35.0,22.5,30.17,West,270,0.0,0.0,60,0.00,,,0.00,LWC V2.11 B50,2013-01-13 01:29:00,
2013-01-12 17:30:00,49.1,44.0,29.80,ESE,118,0.0,0.6,84,0.00,,,0.00,WeatherCatV1.15B25,2013-01-13 01:30:00,
2013-01-12 17:34:00,34.8,22.7,30.17,West,269,0.0,0.0,61,0.00,,,0.00,LWC V2.11 B50,2013-01-13 01:34:00,
2013-01-12 17:35:00,49.1,44.0,29.80,ESE,118,0.0,0.6,84,0.00,,,0.00,WeatherCatV1.15B25,2013-01-13 01:35:00,
2013-01-12 17:39:00,34.6,22.2,30.17,West,270,0.0,0.0,60,0.00,,,0.00,LWC V2.11 B50,2013-01-13 01:39:00,
2013-01-12 17:40:00,49.1,44.0,29.80,ESE,118,0.0,0.6,84,0.00,,,0.00,WeatherCatV1.15B25,2013-01-13 01:40:00,
2013-01-12 17:44:00,34.5,22.5,30.17,West,270,0.0,0.0,61,0.00,,,0.00,LWC V2.11 B50,2013-01-13 01:44:00,
2013-01-12 17:45:00,49.1,44.0,29.80,ESE,118,0.0,0.6,84,0.00,,,0.00,WeatherCatV1.15B25,2013-01-13 01:45:00,
2013-01-12 17:49:00,34.3,22.7,30.17,West,270,0.0,0.0,62,0.00,,,0.00,LWC V2.11 B50,2013-01-13 01:49:00,
2013-01-12 17:50:00,49.1,44.0,29.80,ESE,118,0.0,0.6,84,0.00,,,0.00,WeatherCatV1.15B25,2013-01-13 01:50:00,
2013-01-12 17:54:00,34.1,23.2,30.17,West,270,0.0,0.0,64,0.00,,,0.00,LWC V2.11 B50,2013-01-13 01:54:00,
2013-01-12 17:55:00,49.1,44.0,29.80,ESE,118,0.0,0.6,84,0.00,,,0.00,WeatherCatV1.15B25,2013-01-13 01:55:00,
2013-01-12 17:59:00,33.8,22.9,30.17,West,270,0.0,0.0,64,0.00,,,0.00,LWC V2.11 B50,2013-01-13 01:59:00,
2013-01-12 18:00:00,49.1,44.0,29.80,ESE,118,0.0,0.6,84,0.00,,,0.00,WeatherCatV1.15B25,2013-01-13 02:00:00,
2013-01-12 18:04:00,33.6,22.0,30.17,West,270,0.0,0.0,62,0.00,,,0.00,LWC V2.11 B50,2013-01-13 02:04:00,
2013-01-12 18:05:00,49.1,44.0,29.80,ESE,118,0.0,0.6,84,0.00,,,0.00,WeatherCatV1.15B25,2013-01-13 02:05:00,
2013-01-12 18:09:00,33.4,22.9,30.17,West,270,0.0,0.0,65,0.00,,,0.00,LWC V2.11 B50,2013-01-13 02:09:00,
2013-01-12 18:10:00,49.1,44.0,29.80,ESE,118,0.0,0.6,84,0.00,,,0.00,WeatherCatV1.15B25,2013-01-13 02:10:00,
2013-01-12 18:14:00,33.2,23.4,30.17,West,270,0.0,0.0,67,0.00,,,0.00,LWC V2.11 B50,2013-01-13 02:14:00,
2013-01-12 18:15:00,49.1,44.0,29.80,ESE,118,0.0,0.6,84,0.00,,,0.00,WeatherCatV1.15B25,2013-01-13 02:15:00,
2013-01-12 18:19:00,32.9,23.9,30.17,West,271,0.0,0.0,69,0.00,,,0.00,LWC V2.11 B50,2013-01-13 02:19:00,
2013-01-12 18:20:00,49.1,44.0,29.80,ESE,118,0.0,0.6,84,0.00,,,0.00,WeatherCatV1.15B25,2013-01-13 02:20:00,
2013-01-12 18:24:00,32.7,23.3,30.17,West,271,0.0,0.0,68,0.00,,,0.00,LWC V2.11 B50,2013-01-13 02:24:00,
2013-01-12 18:25:00,49.1,44.0,29.80,ESE,118,0.0,0.6,84,0.00,,,0.00,WeatherCatV1.15B25,2013-01-13 02:25:00,
2013-01-12 18:29:00,32.2,23.5,30.17,West,271,0.0,0.0,70,0.00,,,0.00,LWC V2.11 B50,2013-01-13 02:29:00,
2013-01-12 18:30:00,49.1,44.0,29.80,ESE,118,0.0,0.6,84,0.00,,,0.00,WeatherCatV1.15B25,2013-01-13 02:30:00,
2013-01-12 18:34:00,31.8,23.8,30.18,West,271,0.0,0.0,72,0.00,,,0.00,LWC V2.11 B50,2013-01-13 02:34:00,
2013-01-12 18:35:00,49.1,44.0,29.80,ESE,118,0.0,0.6,84,0.00,,,0.00,WeatherCatV1.15B25,2013-01-13 02:35:00,
2013-01-12 18:39:00,31.6,23.6,30.17,West,271,0.0,0.0,72,0.00,,,0.00,LWC V2.11 B50,2013-01-13 02:39:00,
2013-01-12 18:40:00,49.1,44.0,29.80,ESE,118,0.0,0.6,84,0.00,,,0.00,WeatherCatV1.15B25,2013-01-13 02:40:00,
2013-01-12 18:44:00,31.4,23.8,30.17,West,271,0.0,0.0,73,0.00,,,0.00,LWC V2.11 B50,2013-01-13 02:44:00,
2013-01-12 18:45:00,49.1,44.0,29.80,ESE,118,0.0,0.6,84,0.00,,,0.00,WeatherCatV1.15B25,2013-01-13 02:45:00,
2013-01-12 18:49:00,31.2,23.6,30.17,West,271,0.0,0.0,73,0.00,,,0.00,LWC V2.11 B50,2013-01-13 02:49:00,
2013-01-12 18:50:00,49.1,44.0,29.80,ESE,118,0.0,0.6,84,0.00,,,0.00,WeatherCatV1.15B25,2013-01-13 02:50:00,
2013-01-12 18:54:00,31.2,23.2,30.18,West,271,0.0,0.0,72,0.00,,,0.00,LWC V2.11 B50,2013-01-13 02:54:00,
2013-01-12 18:55:00,49.1,44.0,29.80,ESE,118,0.0,0.6,84,0.00,,,0.00,WeatherCatV1.15B25,2013-01-13 02:55:00,
2013-01-12 18:59:00,30.8,23.8,30.18,West,271,0.0,0.0,75,0.00,,,0.00,LWC V2.11 B50,2013-01-13 02:59:00,
2013-01-12 19:00:00,49.1,44.0,29.80,ESE,118,0.0,0.6,84,0.00,,,0.00,WeatherCatV1.15B25,2013-01-13 03:00:00,
2013-01-12 19:04:00,30.4,24.1,30.17,West,271,0.0,0.0,77,0.00,,,0.00,LWC V2.11 B50,2013-01-13 03:04:00,
2013-01-12 19:05:00,49.1,44.0,29.80,ESE,118,0.0,0.6,84,0.00,,,0.00,WeatherCatV1.15B25,2013-01-13 03:05:00,
2013-01-12 19:09:00,30.2,24.5,30.17,West,271,0.0,0.0,79,0.00,,,0.00,LWC V2.11 B50,2013-01-13 03:09:00,
2013-01-12 19:10:00,49.1,44.0,29.80,ESE,118,0.0,0.6,84,0.00,,,0.00,WeatherCatV1.15B25,2013-01-13 03:10:00,
2013-01-12 19:14:00,29.5,24.1,30.18,West,271,0.0,0.0,80,0.00,,,0.00,LWC V2.11 B50,2013-01-13 03:14:00,
2013-01-12 19:15:00,49.1,44.0,29.80,ESE,118,0.0,0.6,84,0.00,,,0.00,WeatherCatV1.15B25,2013-01-13 03:15:00,
2013-01-12 19:19:00,29.2,24.1,30.18,West,271,0.0,0.0,81,0.00,,,0.00,LWC V2.11 B50,2013-01-13 03:19:00,
2013-01-12 19:20:00,49.1,44.0,29.80,ESE,118,0.0,0.6,84,0.00,,,0.00,WeatherCatV1.15B25,2013-01-13 03:20:00,
2013-01-12 19:24:00,28.7,23.9,30.18,West,271,0.0,0.0,82,0.00,,,0.00,LWC V2.11 B50,2013-01-13 03:24:00,
2013-01-12 19:25:00,49.1,44.0,29.80,ESE,118,0.0,0.6,84,0.00,,,0.00,WeatherCatV1.15B25,2013-01-13 03:25:00,
2013-01-12 19:29:00,28.5,24.0,30.18,West,271,0.0,0.0,83,0.00,,,0.00,LWC V2.11 B50,2013-01-13 03:29:00,
2013-01-12 19:30:00,49.1,44.0,29.80,ESE,118,0.0,0.6,84,0.00,,,0.00,WeatherCatV1.15B25,2013-01-13 03:30:00,
2013-01-12 19:34:00,28.2,23.7,30.18,West,271,0.0,0.0,83,0.00,,,0.00,LWC V2.11 B50,2013-01-13 03:34:00,
2013-01-12 19:35:00,49.1,44.0,29.80,ESE,118,0.0,0.6,84,0.00,,,0.00,WeatherCatV1.15B25,2013-01-13 03:35:00,
2013-01-12 19:39:00,28.1,23.6,30.18,West,271,0.0,0.0,83,0.00,,,0.00,LWC V2.11 B50,2013-01-13 03:39:00,
2013-01-12 19:40:00,49.1,44.0,29.80,ESE,118,0.0,0.6,84,0.00,,,0.00,WeatherCatV1.15B25,2013-01-13 03:40:00,
2013-01-12 19:44:00,27.9,23.4,30.18,West,271,0.0,0.0,83,0.00,,,0.00,LWC V2.11 B50,2013-01-13 03:44:00,
2013-01-12 19:45:00,49.1,44.0,29.80,ESE,118,0.0,0.6,84,0.00,,,0.00,WeatherCatV1.15B25,2013-01-13 03:45:00,
2013-01-12 19:49:00,27.8,23.6,30.18,West,271,0.0,0.0,84,0.00,,,0.00,LWC V2.11 B50,2013-01-13 03:49:00,
2013-01-12 19:50:00,49.1,44.0,29.80,ESE,118,0.0,0.6,84,0.00,,,0.00,WeatherCatV1.15B25,2013-01-13 03:50:00,
2013-01-12 19:54:00,27.6,23.1,30.17,West,271,0.0,0.0,83,0.00,,,0.00,LWC V2.11 B50,2013-01-13 03:54:00,
2013-01-12 19:55:00,49.1,44.0,29.80,ESE,118,0.0,0.6,84,0.00,,,0.00,WeatherCatV1.15B25,2013-01-13 03:55:00,
2013-01-12 19:59:00,27.4,22.9,30.17,West,271,0.0,0.0,83,0.00,,,0.00,LWC V2.11 B50,2013-01-13 03:59:00,
2013-01-12 20:00:00,49.1,44.0,29.80,ESE,118,0.0,0.6,84,0.00,,,0.00,WeatherCatV1.15B25,2013-01-13 04:00:00,
2013-01-12 20:04:00,27.3,23.1,30.18,West,271,0.0,0.0,84,0.00,,,0.00,LWC V2.11 B50,2013-01-13 04:04:00,
2013-01-12 20:05:00,49.1,44.0,29.80,ESE,118,0.0,0.6,84,0.00,,,0.00,WeatherCatV1.15B25,2013-01-13 04:05:00,
2013-01-12 20:09:00,27.3,23.1,30.18,West,271,0.0,0.0,84,0.00,,,0.00,LWC V2.11 B50,2013-01-13 04:09:00,
2013-01-12 20:10:00,49.1,44.0,29.80,ESE,118,0.0,0.6,84,0.00,,,0.00,WeatherCatV1.15B25,2013-01-13 04:10:00,
2013-01-12 20:14:00,27.3,23.4,30.18,West,271,0.0,0.0,85,0.00,,,0.00,LWC V2.11 B50,2013-01-13 04:14:00,
2013-01-12 20:15:00,49.1,44.0,29.80,ESE,118,0.0,0.6,84,0.00,,,0.00,WeatherCatV1.15B25,2013-01-13 04:15:00,
2013-01-12 20:19:00,27.4,23.5,30.18,West,271,0.0,0.0,85,0.00,,,0.00,LWC V2.11 B50,2013-01-13 04:19:00,
2013-01-12 20:20:00,49.1,44.0,29.80,ESE,118,0.0,0.6,84,0.00,,,0.00,WeatherCatV1.15B25,2013-01-13 04:20:00,
2013-01-12 20:24:00,27.2,23.3,30.18,West,271,0.0,0.0,85,0.00,,,0.00,LWC V2.11 B50,2013-01-13 04:24:00,
2013-01-12 20:25:00,49.1,44.0,29.80,ESE,118,0.0,0.6,84,0.00,,,0.00,WeatherCatV1.15B25,2013-01-13 04:25:00,
2013-01-12 20:29:00,26.9,23.0,30.18,West,271,0.0,0.0,85,0.00,,,0.00,LWC V2.11 B50,2013-01-13 04:29:00,
2013-01-12 20:30:00,49.1,44.0,29.80,ESE,118,0.0,0.6,84,0.00,,,0.00,WeatherCatV1.15B25,2013-01-13 04:30:00,
2013-01-12 20:34:00,26.8,23.2,30.18,West,271,0.0,0.0,86,0.00,,,0.00,LWC V2.11 B50,2013-01-13 04:34:00,
2013-01-12 20:35:00,49.1,44.0,29.80,ESE,118,0.0,0.6,84,0.00,,,0.00,WeatherCatV1.15B25,2013-01-13 04:35:00,
2013-01-12 20:39:00,26.7,22.8,30.18,West,271,0.0,0.0,85,0.00,,,0.00,LWC V2.11 B50,2013-01-13 04:39:00,
2013-01-12 20:40:00,49.1,44.0,29.80,ESE,118,0.0,0.6,84,0.00,,,0.00,WeatherCatV1.15B25,2013-01-13 04:40:00,
2013-01-12 20:44:00,26.7,22.8,30.18,West,271,0.0,0.0,85,0.00,,,0.00,LWC V2.11 B50,2013-01-13 04:44:00,
2013-01-12 20:45:00,49.1,44.0,29.80,ESE,118,0.0,0.6,84,0.00,,,0.00,WeatherCatV1.15B25,2013-01-13 04:45:00,
2013-01-12 20:49:00,26.8,23.2,30.18,NNE,17,0.0,0.0,86,0.00,,,0.00,LWC V2.11 B50,2013-01-13 04:49:00,
2013-01-12 20:50:00,49.1,44.0,29.80,ESE,118,0.0,0.6,84,0.00,,,0.00,WeatherCatV1.15B25,2013-01-13 04:50:00,
2013-01-12 20:54:00,26.9,23.6,30.18,NNE,17,0.0,0.0,87,0.00,,,0.00,LWC V2.11 B50,2013-01-13 04:54:00,
2013-01-12 20:55:00,49.1,44.0,29.80,ESE,118,0.0,0.6,84,0.00,,,0.00,WeatherCatV1.15B25,2013-01-13 04:55:00,
2013-01-12 20:59:00,26.8,23.2,30.18,NNE,18,0.0,0.0,86,0.00,,,0.00,LWC V2.11 B50,2013-01-13 04:59:00,
2013-01-12 21:00:00,26.8,23.2,30.18,NNE,17,0.0,0.0,86,0.00,,,0.00,LWC V2.11 B50,2013-01-13 05:00:00,
2013-01-12 21:05:00,26.5,22.9,30.19,NNE,17,0.0,0.0,86,0.00,,,0.00,LWC V2.11 B50,2013-01-13 05:05:00,
2013-01-12 21:10:00,26.5,23.4,30.18,NNE,17,0.0,0.0,88,0.00,,,0.00,LWC V2.11 B50,2013-01-13 05:10:00,
2013-01-12 21:15:00,26.8,23.5,30.18,NNE,18,0.0,0.0,87,0.00,,,0.00,LWC V2.11 B50,2013-01-13 05:15:00,
2013-01-12 21:20:00,26.6,23.3,30.18,NNE,17,0.0,0.0,87,0.00,,,0.00,LWC V2.11 B50,2013-01-13 05:20:00,
2013-01-12 21:25:00,26.5,23.4,30.18,NNE,18,0.0,0.0,88,0.00,,,0.00,LWC V2.11 B50,2013-01-13 05:25:00,
2013-01-12 21:30:00,26.5,23.4,30.18,NNE,17,0.0,0.0,88,0.00,,,0.00,LWC V2.11 B50,2013-01-13 05:30:00,
2013-01-12 21:35:00,26.6,23.5,30.18,NNE,22,0.0,0.0,88,0.00,,,0.00,LWC V2.11 B50,2013-01-13 05:35:00,
2013-01-12 21:40:00,26.6,23.3,30.18,NNE,20,0.0,0.0,87,0.00,,,0.00,LWC V2.11 B50,2013-01-13 05:40:00,
2013-01-12 21:45:00,26.2,22.9,30.18,NNE,20,0.0,0.0,87,0.00,,,0.00,LWC V2.11 B50,2013-01-13 05:45:00,
2013-01-12 21:50:00,26.1,23.0,30.18,NNE,22,0.0,0.0,88,0.00,,,0.00,LWC V2.11 B50,2013-01-13 05:50:00,
2013-01-12 21:55:00,26.1,23.0,30.19,NNE,20,0.0,0.0,88,0.00,,,0.00,LWC V2.11 B50,2013-01-13 05:55:00,
2013-01-12 22:00:00,26.2,23.1,30.19,NNE,21,0.0,0.0,88,0.00,,,0.00,LWC V2.11 B50,2013-01-13 06:00:00,
2013-01-12 22:05:00,26.2,23.1,30.19,NNE,20,0.0,0.0,88,0.00,,,0.00,LWC V2.11 B50,2013-01-13 06:05:00,
2013-01-12 22:10:00,25.8,22.7,30.19,NNE,20,0.0,0.0,88,0.00,,,0.00,LWC V2.11 B50,2013-01-13 06:10:00,
2013-01-12 22:15:00,25.7,22.6,30.19,NNE,20,0.0,0.0,88,0.00,,,0.00,LWC V2.11 B50,2013-01-13 06:15:00,
2013-01-12 22:20:00,25.6,22.8,30.19,NNE,22,0.0,0.0,89,0.00,,,0.00,LWC V2.11 B50,2013-01-13 06:20:00,
2013-01-12 22:25:00,25.7,22.9,30.19,NNE,20,0.0,0.0,89,0.00,,,0.00,LWC V2.11 B50,2013-01-13 06:25:00,
2013-01-12 22:30:00,25.8,23.0,30.19,NNE,21,0.0,0.0,89,0.00,,,0.00,LWC V2.11 B50,2013-01-13 06:30:00,
2013-01-12 22:35:00,26.0,23.2,30.19,NNE,22,0.0,0.0,89,0.00,,,0.00,LWC V2.11 B50,2013-01-13 06:35:00,
2013-01-12 22:40:00,25.9,22.8,30.20,NNE,20,0.0,0.0,88,0.00,,,0.00,LWC V2.11 B50,2013-01-13 06:40:00,
2013-01-12 22:45:00,25.6,22.8,30.20,NNE,20,0.0,0.0,89,0.00,,,0.00,LWC V2.11 B50,2013-01-13 06:45:00,
2013-01-12 22:50:00,25.3,22.5,30.20,NNE,20,0.0,0.0,89,0.00,,,0.00,LWC V2.11 B50,2013-01-13 06:50:00,
2013-01-12 22:55:00,25.5,22.7,30.20,NNE,22,0.0,0.0,89,0.00,,,0.00,LWC V2.11 B50,2013-01-13 06:55:00,
2013-01-12 23:00:00,26.0,22.9,30.20,WSW,248,0.0,0.0,88,0.00,,,0.00,LWC V2.11 B50,2013-01-13 07:00:00,
2013-01-12 23:05:00,49.0,44.0,29.80,ESE,118,0.0,0.6,84,0.00,,,0.00,WeatherCatV1.15B25,2013-01-13 07:05:00,
2013-01-12 23:10:00,26.0,22.9,30.20,WSW,248,0.0,0.0,88,0.00,,,0.00,LWC V2.11 B50,2013-01-13 07:10:00,
2013-01-12 23:15:00,49.0,44.0,29.80,ESE,118,0.0,0.6,84,0.00,,,0.00,WeatherCatV1.15B25,2013-01-13 07:15:00,
2013-01-12 23:20:00,26.0,22.9,30.20,WSW,248,0.0,0.0,88,0.00,,,0.00,LWC V2.11 B50,2013-01-13 07:20:00,
2013-01-12 23:25:00,49.0,44.0,29.80,ESE,118,0.0,0.6,84,0.00,,,0.00,WeatherCatV1.15B25,2013-01-13 07:25:00,
2013-01-12 23:30:00,26.0,22.9,30.20,WSW,248,0.0,0.0,88,0.00,,,0.00,LWC V2.11 B50,2013-01-13 07:30:00,
2013-01-12 23:35:00,49.0,44.0,29.80,ESE,118,0.0,0.6,84,0.00,,,0.00,WeatherCatV1.15B25,2013-01-13 07:35:00,
2013-01-12 23:40:00,26.0,22.9,30.20,WSW,248,0.0,0.0,88,0.00,,,0.00,LWC V2.11 B50,2013-01-13 07:40:00,
2013-01-12 23:45:00,49.0,44.0,29.80,ESE,118,0.0,0.6,84,0.00,,,0.00,WeatherCatV1.15B25,2013-01-13 07:45:00,
2013-01-12 23:50:00,26.0,22.9,30.20,WSW,248,0.0,0.0,88,0.00,,,0.00,LWC V2.11 B50,2013-01-13 07:50:00,
2013-01-12 23:55:00,49.0,44.0,29.80,ESE,118,0.0,0.6,84,0.00,,,0.00,WeatherCatV1.15B25,2013-01-13 07:55:00,